Time,TemperatureF,DewpointF,PressureIn,WindDirection,WindDirectionDegrees,WindSpeedMPH,WindSpeedGustMPH,Humidity,HourlyPrecipIn,Conditions,Clouds,dailyrainin,SoftwareType,DateUTC
2013-03-17 00:09:00,32.8,15.0,29.87,NNE,13,1.0,4.0,49,0.00,,,0.00,weatherlink.com 1.10,2013-03-17 04:09:00,
2013-03-17 00:24:00,32.1,15.0,29.87,NNW,333,0.0,3.0,50,0.00,,,0.00,weatherlink.com 1.10,2013-03-17 04:24:00,
2013-03-17 00:39:00,31.4,14.0,29.88,NNW,327,0.0,2.0,49,0.00,,,0.00,weatherlink.com 1.10,2013-03-17 04:39:00,
2013-03-17 00:54:00,30.6,14.0,29.88,NW,313,0.0,1.0,51,0.00,,,0.00,weatherlink.com 1.10,2013-03-17 04:54:00,
2013-03-17 01:09:00,30.1,14.0,29.88,North,355,1.0,1.0,51,0.00,,,0.00,weatherlink.com 1.10,2013-03-17 05:09:00,
2013-03-17 01:24:00,29.4,14.0,29.89,NE,50,0.0,1.0,52,0.00,,,0.00,weatherlink.com 1.10,2013-03-17 05:24:00,
2013-03-17 01:39:00,28.7,14.0,29.89,NE,50,0.0,0.0,54,0.00,,,0.00,weatherlink.com 1.10,2013-03-17 05:39:00,
2013-03-17 01:54:00,28.4,14.0,29.89,NE,50,0.0,0.0,54,0.00,,,0.00,weatherlink.com 1.10,2013-03-17 05:54:00,
2013-03-17 02:09:00,28.2,14.0,29.89,NE,50,0.0,0.0,55,0.00,,,0.00,weatherlink.com 1.10,2013-03-17 06:09:00,
2013-03-17 02:24:00,27.5,14.0,29.89,NNE,26,0.0,1.0,58,0.00,,,0.00,weatherlink.com 1.10,2013-03-17 06:24:00,
2013-03-17 02:39:00,27.1,14.0,29.89,NNE,25,0.0,0.0,59,0.00,,,0.00,weatherlink.com 1.10,2013-03-17 06:39:00,
2013-03-17 02:54:00,26.4,15.0,29.88,NNE,26,0.0,0.0,62,0.00,,,0.00,weatherlink.com 1.10,2013-03-17 06:54:00,
2013-03-17 03:09:00,26.1,15.0,29.89,NNE,25,0.0,0.0,62,0.00,,,0.00,weatherlink.com 1.10,2013-03-17 07:09:00,
2013-03-17 03:24:00,25.9,16.0,29.89,NNE,25,0.0,0.0,65,0.00,,,0.00,weatherlink.com 1.10,2013-03-17 07:24:00,
2013-03-17 03:39:00,25.7,16.0,29.89,NNE,25,0.0,0.0,67,0.00,,,0.00,weatherlink.com 1.10,2013-03-17 07:39:00,
2013-03-17 03:54:00,25.6,16.0,29.89,NNE,25,0.0,0.0,67,0.00,,,0.00,weatherlink.com 1.10,2013-03-17 07:54:00,
2013-03-17 04:09:00,25.5,16.0,29.91,West,280,0.0,0.0,67,0.00,,,0.00,weatherlink.com 1.10,2013-03-17 08:09:00,
2013-03-17 04:24:00,25.5,16.0,29.91,West,279,0.0,0.0,66,0.00,,,0.00,weatherlink.com 1.10,2013-03-17 08:24:00,
2013-03-17 04:39:00,25.3,16.0,29.91,West,279,0.0,0.0,67,0.00,,,0.00,weatherlink.com 1.10,2013-03-17 08:39:00,
2013-03-17 04:54:00,25.1,16.0,29.92,West,280,0.0,0.0,67,0.00,,,0.00,weatherlink.com 1.10,2013-03-17 08:54:00,
2013-03-17 05:09:00,24.7,15.0,29.92,West,280,0.0,0.0,68,0.00,,,0.00,weatherlink.com 1.10,2013-03-17 09:09:00,
2013-03-17 05:24:00,24.2,15.0,29.92,West,280,0.0,0.0,68,0.00,,,0.00,weatherlink.com 1.10,2013-03-17 09:24:00,
2013-03-17 05:39:00,23.5,15.0,29.93,West,279,0.0,0.0,70,0.00,,,0.00,weatherlink.com 1.10,2013-03-17 09:39:00,
2013-03-17 05:54:00,23.6,15.0,29.93,West,279,0.0,0.0,70,0.00,,,0.00,weatherlink.com 1.10,2013-03-17 09:54:00,
2013-03-17 06:09:00,23.3,15.0,29.93,West,280,0.0,1.0,70,0.00,,,0.00,weatherlink.com 1.10,2013-03-17 10:09:00,
2013-03-17 06:24:00,23.2,15.0,29.94,West,279,0.0,0.0,71,0.00,,,0.00,weatherlink.com 1.10,2013-03-17 10:24:00,
2013-03-17 06:40:00,22.7,15.0,29.93,West,280,0.0,0.0,71,0.00,,,0.00,weatherlink.com 1.10,2013-03-17 10:40:00,
2013-03-17 06:55:00,22.3,15.0,29.95,West,279,0.0,1.0,73,0.00,,,0.00,weatherlink.com 1.10,2013-03-17 10:55:00,
2013-03-17 07:10:00,22.1,15.0,29.96,West,278,0.0,0.0,73,0.00,,,0.00,weatherlink.com 1.10,2013-03-17 11:10:00,
2013-03-17 07:25:00,22.4,15.0,29.97,WSW,248,0.0,0.0,73,0.00,,,0.00,weatherlink.com 1.10,2013-03-17 11:25:00,
2013-03-17 07:40:00,24.0,16.0,29.98,WSW,257,0.0,1.0,70,0.00,,,0.00,weatherlink.com 1.10,2013-03-17 11:40:00,
2013-03-17 07:55:00,25.7,16.0,29.99,NNE,12,0.0,3.0,67,0.00,,,0.00,weatherlink.com 1.10,2013-03-17 11:55:00,
2013-03-17 08:10:00,27.2,16.0,30.00,NNW,327,0.0,2.0,64,0.00,,,0.00,weatherlink.com 1.10,2013-03-17 12:10:00,
2013-03-17 08:25:00,28.3,16.0,30.01,WNW,286,3.0,7.0,60,0.00,,,0.00,weatherlink.com 1.10,2013-03-17 12:25:00,
2013-03-17 08:40:00,28.8,16.0,30.02,West,274,5.0,9.0,60,0.00,,,0.00,weatherlink.com 1.10,2013-03-17 12:40:00,
2013-03-17 08:55:00,29.4,16.0,30.02,NNW,335,0.0,9.0,58,0.00,,,0.00,weatherlink.com 1.10,2013-03-17 12:55:00,
2013-03-17 09:10:00,29.7,16.0,30.02,WSW,250,2.0,10.0,56,0.00,,,0.00,weatherlink.com 1.10,2013-03-17 13:10:00,
2013-03-17 09:25:00,30.0,15.0,30.02,NNW,329,5.0,9.0,53,0.00,,,0.00,weatherlink.com 1.10,2013-03-17 13:25:00,
2013-03-17 09:40:00,30.5,15.0,30.02,WSW,252,5.0,9.0,52,0.00,,,0.00,weatherlink.com 1.10,2013-03-17 13:40:00,
2013-03-17 09:55:00,31.5,12.0,30.02,NW,310,1.0,8.0,44,0.00,,,0.00,weatherlink.com 1.10,2013-03-17 13:55:00,
2013-03-17 10:10:00,32.4,12.0,30.01,WNW,303,0.0,7.0,42,0.00,,,0.00,weatherlink.com 1.10,2013-03-17 14:10:00,
2013-03-17 10:25:00,33.0,12.0,30.02,NNW,328,2.0,6.0,41,0.00,,,0.00,weatherlink.com 1.10,2013-03-17 14:25:00,
2013-03-17 10:40:00,33.2,11.0,30.02,SSW,195,0.0,7.0,39,0.00,,,0.00,weatherlink.com 1.10,2013-03-17 14:40:00,
2013-03-17 10:55:00,33.9,10.0,30.02,WNW,287,3.0,13.0,37,0.00,,,0.00,weatherlink.com 1.10,2013-03-17 14:55:00,
2013-03-17 11:10:00,34.3,10.0,30.02,SSW,209,0.0,9.0,37,0.00,,,0.00,weatherlink.com 1.10,2013-03-17 15:10:00,
2013-03-17 11:25:00,34.6,11.0,30.03,WSW,245,5.0,10.0,37,0.00,,,0.00,weatherlink.com 1.10,2013-03-17 15:25:00,
2013-03-17 11:40:00,35.1,11.0,30.02,West,275,4.0,12.0,37,0.00,,,0.00,weatherlink.com 1.10,2013-03-17 15:40:00,
2013-03-17 11:55:00,35.9,11.0,30.03,NW,304,3.0,9.0,36,0.00,,,0.00,weatherlink.com 1.10,2013-03-17 15:55:00,
2013-03-17 12:10:00,36.3,12.0,30.03,NW,320,3.0,10.0,36,0.00,,,0.00,weatherlink.com 1.10,2013-03-17 16:10:00,
2013-03-17 12:25:00,36.8,11.0,30.03,North,351,4.0,7.0,35,0.00,,,0.00,weatherlink.com 1.10,2013-03-17 16:25:00,
2013-03-17 12:40:00,36.5,10.0,30.03,NW,312,1.0,10.0,34,0.00,,,0.00,weatherlink.com 1.10,2013-03-17 16:40:00,
2013-03-17 12:55:00,35.9,9.0,30.03,WNW,294,5.0,17.0,33,0.00,,,0.00,weatherlink.com 1.10,2013-03-17 16:55:00,
2013-03-17 13:10:00,37.2,8.0,30.03,NW,321,4.0,12.0,30,0.00,,,0.00,weatherlink.com 1.10,2013-03-17 17:10:00,
2013-03-17 13:25:00,35.7,8.0,30.02,NW,304,0.0,12.0,31,0.00,,,0.00,weatherlink.com 1.10,2013-03-17 17:25:00,
2013-03-17 13:40:00,37.0,7.0,30.02,WNW,296,4.0,13.0,28,0.00,,,0.00,weatherlink.com 1.10,2013-03-17 17:40:00,
2013-03-17 13:55:00,37.1,6.0,30.02,West,272,0.0,11.0,27,0.00,,,0.00,weatherlink.com 1.10,2013-03-17 17:55:00,
2013-03-17 14:10:00,37.5,7.0,30.02,NW,320,5.0,15.0,28,0.00,,,0.00,weatherlink.com 1.10,2013-03-17 18:10:00,
2013-03-17 14:25:00,38.0,6.0,30.03,NE,51,3.0,9.0,26,0.00,,,0.00,weatherlink.com 1.10,2013-03-17 18:25:00,
2013-03-17 14:40:00,38.0,4.0,30.03,WNW,292,3.0,16.0,24,0.00,,,0.00,weatherlink.com 1.10,2013-03-17 18:40:00,
2013-03-17 14:55:00,36.9,5.0,30.04,NW,319,3.0,13.0,26,0.00,,,0.00,weatherlink.com 1.10,2013-03-17 18:55:00,
2013-03-17 15:10:00,36.9,4.0,30.04,WNW,288,4.0,14.0,25,0.00,,,0.00,weatherlink.com 1.10,2013-03-17 19:10:00,
2013-03-17 15:25:00,36.8,4.0,30.05,SW,230,0.0,13.0,25,0.00,,,0.00,weatherlink.com 1.10,2013-03-17 19:25:00,
2013-03-17 15:40:00,37.6,5.0,30.06,NW,310,2.0,7.0,26,0.00,,,0.00,weatherlink.com 1.10,2013-03-17 19:40:00,
2013-03-17 15:55:00,36.6,5.0,30.06,NNW,339,6.0,11.0,27,0.00,,,0.00,weatherlink.com 1.10,2013-03-17 19:55:00,
2013-03-17 16:10:00,36.9,6.0,30.06,WNW,287,7.0,9.0,27,0.00,,,0.00,weatherlink.com 1.10,2013-03-17 20:10:00,
2013-03-17 16:25:00,37.5,6.0,30.07,WNW,285,4.0,13.0,27,0.00,,,0.00,weatherlink.com 1.10,2013-03-17 20:25:00,
2013-03-17 16:41:00,37.7,6.0,30.07,NNW,339,6.0,14.0,26,0.00,,,0.00,weatherlink.com 1.10,2013-03-17 20:41:00,
2013-03-17 16:56:00,37.6,6.0,30.08,NNW,332,3.0,8.0,27,0.00,,,0.00,weatherlink.com 1.10,2013-03-17 20:56:00,
2013-03-17 17:11:00,37.2,7.0,30.08,WNW,292,4.0,7.0,28,0.00,,,0.00,weatherlink.com 1.10,2013-03-17 21:11:00,
2013-03-17 17:26:00,36.7,6.0,30.09,NW,317,4.0,8.0,28,0.00,,,0.00,weatherlink.com 1.10,2013-03-17 21:26:00,
2013-03-17 17:41:00,36.2,7.0,30.09,NW,310,4.0,7.0,29,0.00,,,0.00,weatherlink.com 1.10,2013-03-17 21:41:00,
2013-03-17 17:56:00,35.6,7.0,30.10,West,266,0.0,5.0,30,0.00,,,0.00,weatherlink.com 1.10,2013-03-17 21:56:00,
2013-03-17 18:11:00,35.0,6.0,30.11,West,267,3.0,9.0,30,0.00,,,0.00,weatherlink.com 1.10,2013-03-17 22:11:00,
2013-03-17 18:26:00,34.2,7.0,30.12,NNW,348,2.0,7.0,32,0.00,,,0.00,weatherlink.com 1.10,2013-03-17 22:26:00,
2013-03-17 19:11:00,32.4,7.0,30.15,NW,317,1.0,2.0,35,0.00,,,0.00,weatherlink.com 1.10,2013-03-17 23:11:00,
2013-03-17 19:26:00,32.1,7.0,30.16,NW,311,3.0,6.0,35,0.00,,,0.00,weatherlink.com 1.10,2013-03-17 23:26:00,
2013-03-17 19:41:00,31.8,8.0,30.17,NNW,330,1.0,2.0,36,0.00,,,0.00,weatherlink.com 1.10,2013-03-17 23:41:00,
2013-03-17 19:56:00,31.4,7.0,30.18,NNW,339,1.0,4.0,36,0.00,,,0.00,weatherlink.com 1.10,2013-03-17 23:56:00,
2013-03-17 20:11:00,30.9,8.0,30.19,NNW,343,0.0,1.0,38,0.00,,,0.00,weatherlink.com 1.10,2013-03-18 00:11:00,
2013-03-17 20:26:00,30.1,8.0,30.20,NNW,344,0.0,1.0,39,0.00,,,0.00,weatherlink.com 1.10,2013-03-18 00:26:00,
2013-03-17 20:41:00,29.7,8.0,30.21,NNE,12,0.0,1.0,40,0.00,,,0.00,weatherlink.com 1.10,2013-03-18 00:41:00,
2013-03-17 20:56:00,29.4,7.0,30.22,North,350,0.0,3.0,39,0.00,,,0.00,weatherlink.com 1.10,2013-03-18 00:56:00,
2013-03-17 21:11:00,29.5,7.0,30.23,North,350,1.0,2.0,39,0.00,,,0.00,weatherlink.com 1.10,2013-03-18 01:11:00,
2013-03-17 21:26:00,29.6,7.0,30.23,NNW,336,0.0,3.0,38,0.00,,,0.00,weatherlink.com 1.10,2013-03-18 01:26:00,
2013-03-17 21:41:00,29.4,6.0,30.24,NNW,329,1.0,5.0,37,0.00,,,0.00,weatherlink.com 1.10,2013-03-18 01:41:00,
2013-03-17 21:56:00,29.4,5.0,30.25,NNE,26,1.0,7.0,35,0.00,,,0.00,weatherlink.com 1.10,2013-03-18 01:56:00,
2013-03-17 22:11:00,29.2,4.0,30.26,NW,310,0.0,4.0,34,0.00,,,0.00,weatherlink.com 1.10,2013-03-18 02:11:00,
2013-03-17 22:26:00,28.9,4.0,30.26,NNE,28,2.0,4.0,35,0.00,,,0.00,weatherlink.com 1.10,2013-03-18 02:26:00,
2013-03-17 22:41:00,28.6,5.0,30.27,NE,40,1.0,3.0,36,0.00,,,0.00,weatherlink.com 1.10,2013-03-18 02:41:00,
2013-03-17 22:56:00,28.3,4.0,30.29,NNE,14,1.0,3.0,35,0.00,,,0.00,weatherlink.com 1.10,2013-03-18 02:56:00,
2013-03-17 23:11:00,27.9,6.0,30.29,NE,37,0.0,3.0,39,0.00,,,0.00,weatherlink.com 1.10,2013-03-18 03:11:00,
2013-03-17 23:27:00,27.4,6.0,30.30,NNW,336,0.0,4.0,40,0.00,,,0.00,weatherlink.com 1.10,2013-03-18 03:27:00,
2013-03-17 23:42:00,26.9,5.0,30.30,North,350,3.0,4.0,40,0.00,,,0.00,weatherlink.com 1.10,2013-03-18 03:42:00,
2013-03-17 23:57:00,26.5,5.0,30.30,NNE,12,0.0,5.0,39,0.00,,,0.00,weatherlink.com 1.10,2013-03-18 03:57:00,